sensor_id;sensor_type;location;lat;lon;timestamp;pressure;altitude;pressure_sealevel;temperature;humidity
82887;BME280;72660;51.258;-2.200;2023-10-13T00:01:46;99833.71;;;17.16;61.12
82887;BME280;72660;51.258;-2.200;2023-10-13T00:04:10;99831.89;;;17.03;60.94
82887;BME280;72660;51.258;-2.200;2023-10-13T00:06:35;99825.84;;;17.46;59.69
82887;BME280;72660;51.258;-2.200;2023-10-13T00:09:01;99821.03;;;17.32;60.26
82887;BME280;72660;51.258;-2.200;2023-10-13T00:11:26;99825.04;;;17.39;60.81
82887;BME280;72660;51.258;-2.200;2023-10-13T00:13:51;99828.95;;;17.11;61.21
82887;BME280;72660;51.258;-2.200;2023-10-13T00:16:16;99827.68;;;16.98;61.65
82887;BME280;72660;51.258;-2.200;2023-10-13T00:18:41;99817.80;;;17.06;61.46
82887;BME280;72660;51.258;-2.200;2023-10-13T00:21:07;99815.47;;;16.93;60.93
82887;BME280;72660;51.258;-2.200;2023-10-13T00:23:32;99818.87;;;17.25;60.01
82887;BME280;72660;51.258;-2.200;2023-10-13T00:25:57;99796.92;;;16.52;60.83
82887;BME280;72660;51.258;-2.200;2023-10-13T00:28:23;99788.75;;;16.87;59.68
82887;BME280;72660;51.258;-2.200;2023-10-13T00:30:47;99786.74;;;16.41;60.41
82887;BME280;72660;51.258;-2.200;2023-10-13T00:33:12;99782.08;;;17.26;58.70
82887;BME280;72660;51.258;-2.200;2023-10-13T00:35:38;99776.53;;;17.49;57.60
82887;BME280;72660;51.258;-2.200;2023-10-13T00:38:03;99771.38;;;16.80;59.38
82887;BME280;72660;51.258;-2.200;2023-10-13T00:40:28;99770.40;;;17.10;59.37
82887;BME280;72660;51.258;-2.200;2023-10-13T00:42:53;99768.72;;;16.19;60.19
82887;BME280;72660;51.258;-2.200;2023-10-13T00:45:18;99764.63;;;16.93;59.33
82887;BME280;72660;51.258;-2.200;2023-10-13T00:47:44;99757.71;;;16.57;59.06
82887;BME280;72660;51.258;-2.200;2023-10-13T00:50:09;99757.31;;;16.98;58.27
82887;BME280;72660;51.258;-2.200;2023-10-13T00:52:35;99756.27;;;16.38;59.60
82887;BME280;72660;51.258;-2.200;2023-10-13T00:55:00;99754.32;;;16.83;59.28
82887;BME280;72660;51.258;-2.200;2023-10-13T00:57:24;99748.51;;;17.08;58.27
82887;BME280;72660;51.258;-2.200;2023-10-13T00:59:50;99753.78;;;17.42;57.57
82887;BME280;72660;51.258;-2.200;2023-10-13T01:02:15;99742.26;;;17.30;57.97
82887;BME280;72660;51.258;-2.200;2023-10-13T01:04:41;99731.02;;;16.99;57.98
82887;BME280;72660;51.258;-2.200;2023-10-13T01:07:07;99731.38;;;17.53;56.85
82887;BME280;72660;51.258;-2.200;2023-10-13T01:09:40;99722.77;;;18.13;56.09
82887;BME280;72660;51.258;-2.200;2023-10-13T01:11:57;99719.16;;;17.93;55.94
82887;BME280;72660;51.258;-2.200;2023-10-13T01:14:23;99713.85;;;18.31;55.13
82887;BME280;72660;51.258;-2.200;2023-10-13T01:16:48;99715.97;;;18.50;55.02
82887;BME280;72660;51.258;-2.200;2023-10-13T01:19:14;99708.97;;;18.11;55.68
82887;BME280;72660;51.258;-2.200;2023-10-13T01:21:39;99707.52;;;17.61;56.72
82887;BME280;72660;51.258;-2.200;2023-10-13T01:24:04;99702.14;;;18.17;56.59
82887;BME280;72660;51.258;-2.200;2023-10-13T01:26:29;99695.55;;;17.98;56.45
82887;BME280;72660;51.258;-2.200;2023-10-13T01:28:57;99688.14;;;18.32;55.73
82887;BME280;72660;51.258;-2.200;2023-10-13T01:31:21;99681.64;;;17.98;55.72
82887;BME280;72660;51.258;-2.200;2023-10-13T01:33:46;99675.22;;;18.43;55.72
82887;BME280;72660;51.258;-2.200;2023-10-13T01:36:11;99664.08;;;18.51;55.87
82887;BME280;72660;51.258;-2.200;2023-10-13T01:38:37;99657.80;;;17.79;56.96
82887;BME280;72660;51.258;-2.200;2023-10-13T01:41:05;99646.83;;;17.97;57.27
82887;BME280;72660;51.258;-2.200;2023-10-13T01:43:27;99628.15;;;18.28;56.78
82887;BME280;72660;51.258;-2.200;2023-10-13T01:45:53;99621.36;;;18.34;56.66
82887;BME280;72660;51.258;-2.200;2023-10-13T01:48:18;99620.07;;;18.00;56.84
82887;BME280;72660;51.258;-2.200;2023-10-13T01:50:44;99613.56;;;17.93;57.40
82887;BME280;72660;51.258;-2.200;2023-10-13T01:53:08;99602.99;;;18.15;56.48
82887;BME280;72660;51.258;-2.200;2023-10-13T01:55:34;99582.89;;;18.44;56.81
82887;BME280;72660;51.258;-2.200;2023-10-13T01:57:59;99570.11;;;17.64;57.95
82887;BME280;72660;51.258;-2.200;2023-10-13T02:00:25;99565.14;;;18.12;57.65
82887;BME280;72660;51.258;-2.200;2023-10-13T02:02:50;99554.03;;;17.60;58.89
82887;BME280;72660;51.258;-2.200;2023-10-13T02:05:16;99550.25;;;17.41;58.94
82887;BME280;72660;51.258;-2.200;2023-10-13T02:07:41;99537.22;;;17.66;59.14
82887;BME280;72660;51.258;-2.200;2023-10-13T02:10:08;99511.97;;;17.56;59.19
82887;BME280;72660;51.258;-2.200;2023-10-13T02:12:32;99500.94;;;17.75;59.65
82887;BME280;72660;51.258;-2.200;2023-10-13T02:14:58;99499.99;;;17.29;59.98
82887;BME280;72660;51.258;-2.200;2023-10-13T02:17:23;99475.10;;;17.29;60.26
82887;BME280;72660;51.258;-2.200;2023-10-13T02:19:49;99475.29;;;17.13;60.72
82887;BME280;72660;51.258;-2.200;2023-10-13T02:22:14;99466.47;;;17.57;60.09
82887;BME280;72660;51.258;-2.200;2023-10-13T02:24:40;99463.90;;;17.63;59.47
82887;BME280;72660;51.258;-2.200;2023-10-13T02:27:05;99452.22;;;17.30;59.20
82887;BME280;72660;51.258;-2.200;2023-10-13T02:29:30;99447.02;;;18.04;58.95
82887;BME280;72660;51.258;-2.200;2023-10-13T02:31:55;99443.13;;;17.55;59.64
82887;BME280;72660;51.258;-2.200;2023-10-13T02:34:21;99448.98;;;17.72;59.42
82887;BME280;72660;51.258;-2.200;2023-10-13T02:36:47;99439.19;;;17.49;60.05
82887;BME280;72660;51.258;-2.200;2023-10-13T02:39:13;99423.65;;;17.25;60.15
82887;BME280;72660;51.258;-2.200;2023-10-13T02:41:38;99424.16;;;17.47;60.51
82887;BME280;72660;51.258;-2.200;2023-10-13T02:44:04;99407.19;;;17.98;59.16
82887;BME280;72660;51.258;-2.200;2023-10-13T02:46:29;99384.44;;;17.27;60.66
82887;BME280;72660;51.258;-2.200;2023-10-13T02:48:54;99369.13;;;17.44;59.82
82887;BME280;72660;51.258;-2.200;2023-10-13T02:51:20;99345.74;;;17.66;59.62
82887;BME280;72660;51.258;-2.200;2023-10-13T02:53:46;99341.01;;;17.58;59.54
82887;BME280;72660;51.258;-2.200;2023-10-13T02:56:10;99349.78;;;17.38;59.57
82887;BME280;72660;51.258;-2.200;2023-10-13T02:58:36;99335.40;;;17.54;59.45
82887;BME280;72660;51.258;-2.200;2023-10-13T03:01:01;99326.70;;;17.62;60.44
82887;BME280;72660;51.258;-2.200;2023-10-13T03:03:27;99330.79;;;17.72;60.01
82887;BME280;72660;51.258;-2.200;2023-10-13T03:08:18;99320.95;;;17.29;60.72
82887;BME280;72660;51.258;-2.200;2023-10-13T03:10:43;99326.01;;;17.03;61.38
82887;BME280;72660;51.258;-2.200;2023-10-13T03:13:09;99313.22;;;17.42;60.92
82887;BME280;72660;51.258;-2.200;2023-10-13T03:15:34;99313.04;;;17.12;62.24
82887;BME280;72660;51.258;-2.200;2023-10-13T03:18:00;99303.78;;;17.27;61.00
82887;BME280;72660;51.258;-2.200;2023-10-13T03:20:27;99300.15;;;16.73;62.19
82887;BME280;72660;51.258;-2.200;2023-10-13T03:22:53;99295.97;;;17.36;61.93
82887;BME280;72660;51.258;-2.200;2023-10-13T03:25:17;99302.98;;;17.22;61.66
82887;BME280;72660;51.258;-2.200;2023-10-13T03:27:43;99309.15;;;16.83;62.58
82887;BME280;72660;51.258;-2.200;2023-10-13T03:30:09;99299.72;;;17.16;62.29
82887;BME280;72660;51.258;-2.200;2023-10-13T03:32:34;99305.28;;;16.85;63.12
82887;BME280;72660;51.258;-2.200;2023-10-13T03:34:59;99290.23;;;17.00;62.79
82887;BME280;72660;51.258;-2.200;2023-10-13T03:37:25;99285.18;;;17.19;62.77
82887;BME280;72660;51.258;-2.200;2023-10-13T03:39:50;99291.85;;;16.69;63.27
82887;BME280;72660;51.258;-2.200;2023-10-13T03:42:16;99291.87;;;16.70;64.24
82887;BME280;72660;51.258;-2.200;2023-10-13T03:44:42;99287.95;;;17.28;62.21
82887;BME280;72660;51.258;-2.200;2023-10-13T03:47:08;99286.27;;;17.08;63.42
82887;BME280;72660;51.258;-2.200;2023-10-13T03:49:33;99288.71;;;17.17;63.21
82887;BME280;72660;51.258;-2.200;2023-10-13T03:51:59;99283.91;;;16.93;63.61
82887;BME280;72660;51.258;-2.200;2023-10-13T03:54:24;99285.45;;;17.46;62.67
82887;BME280;72660;51.258;-2.200;2023-10-13T03:56:50;99280.09;;;16.96;63.30
82887;BME280;72660;51.258;-2.200;2023-10-13T03:59:16;99273.15;;;17.23;63.01
82887;BME280;72660;51.258;-2.200;2023-10-13T04:01:41;99260.40;;;17.44;62.20
82887;BME280;72660;51.258;-2.200;2023-10-13T04:04:07;99260.99;;;17.03;62.82
82887;BME280;72660;51.258;-2.200;2023-10-13T04:06:32;99266.35;;;17.31;62.88
82887;BME280;72660;51.258;-2.200;2023-10-13T04:08:58;99265.09;;;17.41;61.63
82887;BME280;72660;51.258;-2.200;2023-10-13T04:11:23;99269.66;;;17.31;62.53
82887;BME280;72660;51.258;-2.200;2023-10-13T04:13:49;99250.54;;;17.37;62.12
82887;BME280;72660;51.258;-2.200;2023-10-13T04:16:15;99246.79;;;17.25;61.94
82887;BME280;72660;51.258;-2.200;2023-10-13T04:18:40;99242.29;;;17.41;62.52
82887;BME280;72660;51.258;-2.200;2023-10-13T04:21:05;99245.93;;;17.46;62.39
82887;BME280;72660;51.258;-2.200;2023-10-13T04:23:30;99255.27;;;17.73;61.46
82887;BME280;72660;51.258;-2.200;2023-10-13T04:25:56;99251.47;;;17.47;62.77
82887;BME280;72660;51.258;-2.200;2023-10-13T04:28:22;99236.16;;;17.57;62.43
82887;BME280;72660;51.258;-2.200;2023-10-13T04:30:48;99235.18;;;17.66;62.54
82887;BME280;72660;51.258;-2.200;2023-10-13T04:33:13;99217.44;;;17.29;62.19
82887;BME280;72660;51.258;-2.200;2023-10-13T04:35:39;99212.98;;;17.44;62.52
82887;BME280;72660;51.258;-2.200;2023-10-13T04:38:05;99205.34;;;17.79;62.46
82887;BME280;72660;51.258;-2.200;2023-10-13T04:40:30;99204.36;;;17.59;63.06
82887;BME280;72660;51.258;-2.200;2023-10-13T04:42:56;99199.15;;;17.37;63.83
82887;BME280;72660;51.258;-2.200;2023-10-13T04:45:21;99204.40;;;17.52;63.49
82887;BME280;72660;51.258;-2.200;2023-10-13T04:47:46;99185.18;;;17.45;63.29
82887;BME280;72660;51.258;-2.200;2023-10-13T04:50:12;99183.33;;;17.84;63.67
82887;BME280;72660;51.258;-2.200;2023-10-13T04:52:37;99182.77;;;17.68;63.42
82887;BME280;72660;51.258;-2.200;2023-10-13T04:55:03;99195.49;;;17.72;62.82
82887;BME280;72660;51.258;-2.200;2023-10-13T04:57:28;99180.81;;;17.31;64.19
82887;BME280;72660;51.258;-2.200;2023-10-13T04:59:55;99170.77;;;17.43;64.62
82887;BME280;72660;51.258;-2.200;2023-10-13T05:02:19;99176.28;;;17.77;63.49
82887;BME280;72660;51.258;-2.200;2023-10-13T05:04:45;99163.85;;;17.60;64.48
82887;BME280;72660;51.258;-2.200;2023-10-13T05:07:10;99179.64;;;17.65;63.71
82887;BME280;72660;51.258;-2.200;2023-10-13T05:09:36;99168.37;;;17.70;64.24
82887;BME280;72660;51.258;-2.200;2023-10-13T05:12:01;99177.73;;;17.42;64.25
82887;BME280;72660;51.258;-2.200;2023-10-13T05:14:27;99169.42;;;17.23;64.30
82887;BME280;72660;51.258;-2.200;2023-10-13T05:16:52;99172.88;;;17.61;63.99
82887;BME280;72660;51.258;-2.200;2023-10-13T05:19:18;99172.52;;;18.26;62.65
82887;BME280;72660;51.258;-2.200;2023-10-13T05:21:44;99165.92;;;18.08;62.69
82887;BME280;72660;51.258;-2.200;2023-10-13T05:24:09;99165.50;;;17.75;62.99
82887;BME280;72660;51.258;-2.200;2023-10-13T05:26:34;99165.36;;;18.10;62.02
82887;BME280;72660;51.258;-2.200;2023-10-13T05:28:59;99163.38;;;18.22;61.81
82887;BME280;72660;51.258;-2.200;2023-10-13T05:31:24;99164.61;;;17.86;62.60
82887;BME280;72660;51.258;-2.200;2023-10-13T05:33:49;99155.13;;;18.35;62.27
82887;BME280;72660;51.258;-2.200;2023-10-13T05:36:15;99159.41;;;18.50;61.43
82887;BME280;72660;51.258;-2.200;2023-10-13T05:38:40;99153.92;;;18.59;61.05
82887;BME280;72660;51.258;-2.200;2023-10-13T05:41:06;99151.43;;;18.73;60.27
82887;BME280;72660;51.258;-2.200;2023-10-13T05:43:31;99157.14;;;18.87;60.45
82887;BME280;72660;51.258;-2.200;2023-10-13T05:46:01;99137.71;;;18.60;59.95
82887;BME280;72660;51.258;-2.200;2023-10-13T05:48:21;99157.34;;;18.23;60.94
82887;BME280;72660;51.258;-2.200;2023-10-13T05:50:47;99150.31;;;18.83;60.84
82887;BME280;72660;51.258;-2.200;2023-10-13T05:53:12;99143.32;;;18.36;60.73
82887;BME280;72660;51.258;-2.200;2023-10-13T05:55:38;99137.83;;;18.33;62.02
82887;BME280;72660;51.258;-2.200;2023-10-13T05:58:03;99136.87;;;18.22;61.11
82887;BME280;72660;51.258;-2.200;2023-10-13T06:00:28;99136.29;;;18.10;61.33
82887;BME280;72660;51.258;-2.200;2023-10-13T06:02:53;99133.59;;;18.49;60.57
82887;BME280;72660;51.258;-2.200;2023-10-13T06:05:19;99127.64;;;18.49;59.93
82887;BME280;72660;51.258;-2.200;2023-10-13T06:07:45;99137.43;;;18.42;59.63
82887;BME280;72660;51.258;-2.200;2023-10-13T06:10:10;99122.86;;;18.50;59.57
82887;BME280;72660;51.258;-2.200;2023-10-13T06:12:35;99125.48;;;18.11;60.77
82887;BME280;72660;51.258;-2.200;2023-10-13T06:15:01;99122.91;;;18.65;59.63
82887;BME280;72660;51.258;-2.200;2023-10-13T06:17:26;99128.26;;;18.44;59.63
82887;BME280;72660;51.258;-2.200;2023-10-13T06:19:52;99120.29;;;18.40;60.23
82887;BME280;72660;51.258;-2.200;2023-10-13T06:22:17;99119.96;;;19.01;59.25
82887;BME280;72660;51.258;-2.200;2023-10-13T06:24:42;99115.86;;;18.95;58.74
82887;BME280;72660;51.258;-2.200;2023-10-13T06:27:08;99106.33;;;18.62;59.23
82887;BME280;72660;51.258;-2.200;2023-10-13T06:29:33;99103.40;;;18.79;59.92
82887;BME280;72660;51.258;-2.200;2023-10-13T06:31:59;99106.26;;;18.16;60.07
82887;BME280;72660;51.258;-2.200;2023-10-13T06:34:24;99104.61;;;18.41;59.31
82887;BME280;72660;51.258;-2.200;2023-10-13T06:36:49;99116.85;;;18.79;58.77
82887;BME280;72660;51.258;-2.200;2023-10-13T06:39:15;99121.59;;;18.51;59.09
82887;BME280;72660;51.258;-2.200;2023-10-13T06:41:41;99121.72;;;19.02;58.59
82887;BME280;72660;51.258;-2.200;2023-10-13T06:44:06;99131.72;;;19.51;57.36
82887;BME280;72660;51.258;-2.200;2023-10-13T06:46:31;99136.21;;;19.53;56.60
82887;BME280;72660;51.258;-2.200;2023-10-13T06:48:57;99130.52;;;19.23;57.78
82887;BME280;72660;51.258;-2.200;2023-10-13T06:51:22;99137.18;;;18.42;58.80
82887;BME280;72660;51.258;-2.200;2023-10-13T06:53:48;99138.88;;;18.60;58.37
82887;BME280;72660;51.258;-2.200;2023-10-13T06:56:14;99146.78;;;19.03;58.26
82887;BME280;72660;51.258;-2.200;2023-10-13T06:58:39;99154.65;;;19.00;58.33
82887;BME280;72660;51.258;-2.200;2023-10-13T07:01:07;99153.38;;;19.33;57.43
82887;BME280;72660;51.258;-2.200;2023-10-13T07:03:30;99144.34;;;18.80;58.85
82887;BME280;72660;51.258;-2.200;2023-10-13T07:05:56;99154.06;;;19.33;57.37
82887;BME280;72660;51.258;-2.200;2023-10-13T07:08:21;99157.73;;;19.08;58.28
82887;BME280;72660;51.258;-2.200;2023-10-13T07:10:48;99145.34;;;18.62;59.29
82887;BME280;72660;51.258;-2.200;2023-10-13T07:13:12;99150.63;;;18.70;58.96
82887;BME280;72660;51.258;-2.200;2023-10-13T07:15:37;99162.35;;;18.74;58.11
82887;BME280;72660;51.258;-2.200;2023-10-13T07:18:03;99158.61;;;19.24;57.26
82887;BME280;72660;51.258;-2.200;2023-10-13T07:20:29;99157.21;;;19.63;56.64
82887;BME280;72660;51.258;-2.200;2023-10-13T07:22:54;99165.89;;;19.34;56.73
82887;BME280;72660;51.258;-2.200;2023-10-13T07:25:19;99167.83;;;19.54;57.13
82887;BME280;72660;51.258;-2.200;2023-10-13T07:27:44;99167.34;;;19.08;57.50
82887;BME280;72660;51.258;-2.200;2023-10-13T07:30:11;99164.67;;;19.13;57.98
82887;BME280;72660;51.258;-2.200;2023-10-13T07:32:35;99159.58;;;19.26;57.72
82887;BME280;72660;51.258;-2.200;2023-10-13T07:35:01;99165.12;;;19.02;58.30
82887;BME280;72660;51.258;-2.200;2023-10-13T07:37:26;99168.37;;;19.21;58.00
82887;BME280;72660;51.258;-2.200;2023-10-13T07:39:51;99170.01;;;19.67;57.04
82887;BME280;72660;51.258;-2.200;2023-10-13T07:42:21;99174.03;;;19.29;57.69
82887;BME280;72660;51.258;-2.200;2023-10-13T07:44:41;99177.99;;;19.50;57.24
82887;BME280;72660;51.258;-2.200;2023-10-13T07:47:07;99186.70;;;19.48;57.27
82887;BME280;72660;51.258;-2.200;2023-10-13T07:49:33;99183.45;;;18.86;57.93
82887;BME280;72660;51.258;-2.200;2023-10-13T07:51:59;99182.72;;;19.11;57.95
82887;BME280;72660;51.258;-2.200;2023-10-13T07:54:22;99186.01;;;18.93;58.35
82887;BME280;72660;51.258;-2.200;2023-10-13T07:56:48;99181.20;;;19.36;57.66
82887;BME280;72660;51.258;-2.200;2023-10-13T07:59:13;99183.85;;;19.20;57.84
82887;BME280;72660;51.258;-2.200;2023-10-13T08:01:38;99183.38;;;18.88;57.49
82887;BME280;72660;51.258;-2.200;2023-10-13T08:04:05;99184.27;;;19.85;56.34
82887;BME280;72660;51.258;-2.200;2023-10-13T08:06:29;99177.78;;;19.59;57.05
82887;BME280;72660;51.258;-2.200;2023-10-13T08:08:54;99187.74;;;19.70;56.75
82887;BME280;72660;51.258;-2.200;2023-10-13T08:11:19;99194.72;;;18.59;59.18
82887;BME280;72660;51.258;-2.200;2023-10-13T08:13:44;99195.64;;;19.15;57.78
82887;BME280;72660;51.258;-2.200;2023-10-13T08:16:09;99197.79;;;19.40;57.13
82887;BME280;72660;51.258;-2.200;2023-10-13T08:18:35;99203.24;;;19.80;55.90
82887;BME280;72660;51.258;-2.200;2023-10-13T08:21:01;99213.38;;;19.67;55.82
82887;BME280;72660;51.258;-2.200;2023-10-13T08:23:25;99220.92;;;19.78;56.34
82887;BME280;72660;51.258;-2.200;2023-10-13T08:25:51;99215.35;;;19.40;56.65
82887;BME280;72660;51.258;-2.200;2023-10-13T08:28:16;99216.32;;;19.35;56.90
82887;BME280;72660;51.258;-2.200;2023-10-13T08:30:41;99222.40;;;19.19;56.97
82887;BME280;72660;51.258;-2.200;2023-10-13T08:33:06;99224.37;;;19.52;56.95
82887;BME280;72660;51.258;-2.200;2023-10-13T08:35:31;99229.66;;;19.40;57.64
82887;BME280;72660;51.258;-2.200;2023-10-13T08:37:57;99224.48;;;19.50;56.67
82887;BME280;72660;51.258;-2.200;2023-10-13T08:40:23;99225.46;;;20.10;55.42
82887;BME280;72660;51.258;-2.200;2023-10-13T08:42:48;99231.67;;;20.18;54.95
82887;BME280;72660;51.258;-2.200;2023-10-13T08:45:14;99225.86;;;20.18;55.16
82887;BME280;72660;51.258;-2.200;2023-10-13T08:47:38;99227.84;;;19.74;55.50
82887;BME280;72660;51.258;-2.200;2023-10-13T08:50:04;99232.27;;;19.35;56.74
82887;BME280;72660;51.258;-2.200;2023-10-13T08:52:30;99225.89;;;19.35;56.60
82887;BME280;72660;51.258;-2.200;2023-10-13T08:54:56;99225.29;;;19.72;56.00
82887;BME280;72660;51.258;-2.200;2023-10-13T08:57:20;99216.02;;;19.09;56.85
82887;BME280;72660;51.258;-2.200;2023-10-13T08:59:45;99214.42;;;19.31;57.47
82887;BME280;72660;51.258;-2.200;2023-10-13T09:02:14;99214.95;;;19.70;56.92
82887;BME280;72660;51.258;-2.200;2023-10-13T09:04:35;99221.31;;;19.69;56.56
82887;BME280;72660;51.258;-2.200;2023-10-13T09:07:02;99231.22;;;20.63;54.40
82887;BME280;72660;51.258;-2.200;2023-10-13T09:09:26;99228.58;;;19.98;54.92
82887;BME280;72660;51.258;-2.200;2023-10-13T09:11:51;99233.78;;;20.29;54.81
82887;BME280;72660;51.258;-2.200;2023-10-13T09:14:16;99227.24;;;20.41;54.51
82887;BME280;72660;51.258;-2.200;2023-10-13T09:16:42;99225.73;;;20.44;54.74
82887;BME280;72660;51.258;-2.200;2023-10-13T09:19:07;99212.33;;;20.69;54.66
82887;BME280;72660;51.258;-2.200;2023-10-13T09:21:37;99217.47;;;21.15;53.53
82887;BME280;72660;51.258;-2.200;2023-10-13T09:23:57;99215.48;;;21.08;53.01
82887;BME280;72660;51.258;-2.200;2023-10-13T09:26:23;99212.11;;;20.97;52.99
82887;BME280;72660;51.258;-2.200;2023-10-13T09:28:49;99208.24;;;20.78;53.19
82887;BME280;72660;51.258;-2.200;2023-10-13T09:31:21;99199.05;;;21.22;52.79
82887;BME280;72660;51.258;-2.200;2023-10-13T09:33:39;99199.90;;;20.81;53.35
82887;BME280;72660;51.258;-2.200;2023-10-13T09:36:06;99200.07;;;21.68;51.46
82887;BME280;72660;51.258;-2.200;2023-10-13T09:38:32;99193.04;;;21.84;51.11
82887;BME280;72660;51.258;-2.200;2023-10-13T09:40:56;99202.95;;;21.96;50.28
82887;BME280;72660;51.258;-2.200;2023-10-13T09:43:20;99204.03;;;23.01;49.12
82887;BME280;72660;51.258;-2.200;2023-10-13T09:45:47;99212.07;;;23.30;48.41
82887;BME280;72660;51.258;-2.200;2023-10-13T09:48:12;99208.70;;;23.52;47.34
82887;BME280;72660;51.258;-2.200;2023-10-13T09:50:37;99209.12;;;23.69;46.91
82887;BME280;72660;51.258;-2.200;2023-10-13T09:53:02;99207.56;;;23.92;46.46
82887;BME280;72660;51.258;-2.200;2023-10-13T09:55:30;99203.19;;;24.19;46.43
82887;BME280;72660;51.258;-2.200;2023-10-13T09:57:58;99203.18;;;23.28;47.47
82887;BME280;72660;51.258;-2.200;2023-10-13T10:00:19;99216.72;;;23.80;46.39
82887;BME280;72660;51.258;-2.200;2023-10-13T10:02:43;99221.89;;;23.09;47.53
82887;BME280;72660;51.258;-2.200;2023-10-13T10:05:08;99215.67;;;23.40;47.35
82887;BME280;72660;51.258;-2.200;2023-10-13T10:07:33;99215.43;;;22.93;47.46
82887;BME280;72660;51.258;-2.200;2023-10-13T10:10:01;99216.52;;;23.19;47.29
82887;BME280;72660;51.258;-2.200;2023-10-13T10:12:32;99214.34;;;23.13;47.48
82887;BME280;72660;51.258;-2.200;2023-10-13T10:15:06;99215.94;;;23.02;47.71
82887;BME280;72660;51.258;-2.200;2023-10-13T10:17:14;99205.74;;;22.62;47.48
82887;BME280;72660;51.258;-2.200;2023-10-13T10:19:47;99208.39;;;23.23;47.00
82887;BME280;72660;51.258;-2.200;2023-10-13T10:22:05;99195.78;;;23.72;45.52
82887;BME280;72660;51.258;-2.200;2023-10-13T10:24:30;99201.11;;;24.46;45.28
82887;BME280;72660;51.258;-2.200;2023-10-13T10:26:55;99197.30;;;23.84;44.99
82887;BME280;72660;51.258;-2.200;2023-10-13T10:29:20;99181.94;;;23.17;45.96
82887;BME280;72660;51.258;-2.200;2023-10-13T10:31:45;99190.69;;;23.18;46.43
82887;BME280;72660;51.258;-2.200;2023-10-13T10:34:12;99202.07;;;22.92;46.60
82887;BME280;72660;51.258;-2.200;2023-10-13T10:36:36;99195.92;;;23.38;46.00
82887;BME280;72660;51.258;-2.200;2023-10-13T10:39:01;99194.43;;;22.92;46.41
82887;BME280;72660;51.258;-2.200;2023-10-13T10:41:27;99195.90;;;22.80;46.48
82887;BME280;72660;51.258;-2.200;2023-10-13T10:43:51;99187.46;;;22.71;45.90
82887;BME280;72660;51.258;-2.200;2023-10-13T10:46:25;99191.91;;;23.84;45.03
82887;BME280;72660;51.258;-2.200;2023-10-13T10:48:42;99192.62;;;23.07;45.32
82887;BME280;72660;51.258;-2.200;2023-10-13T10:51:07;99202.88;;;23.72;44.54
82887;BME280;72660;51.258;-2.200;2023-10-13T10:53:34;99206.62;;;24.24;44.33
82887;BME280;72660;51.258;-2.200;2023-10-13T10:56:05;99189.91;;;23.73;44.38
82887;BME280;72660;51.258;-2.200;2023-10-13T10:58:23;99196.93;;;22.67;45.98
82887;BME280;72660;51.258;-2.200;2023-10-13T11:00:48;99196.32;;;22.50;45.95
82887;BME280;72660;51.258;-2.200;2023-10-13T11:03:13;99200.80;;;23.34;45.54
82887;BME280;72660;51.258;-2.200;2023-10-13T11:05:45;99189.74;;;22.63;45.76
82887;BME280;72660;51.258;-2.200;2023-10-13T11:08:05;99187.20;;;23.19;45.26
82887;BME280;72660;51.258;-2.200;2023-10-13T11:10:29;99188.43;;;23.57;44.35
82887;BME280;72660;51.258;-2.200;2023-10-13T11:12:55;99192.29;;;23.19;43.96
82887;BME280;72660;51.258;-2.200;2023-10-13T11:15:20;99195.06;;;23.58;43.12
82887;BME280;72660;51.258;-2.200;2023-10-13T11:17:48;99183.72;;;24.70;42.20
82887;BME280;72660;51.258;-2.200;2023-10-13T11:20:16;99187.35;;;24.07;42.34
82887;BME280;72660;51.258;-2.200;2023-10-13T11:22:36;99197.69;;;23.43;44.59
82887;BME280;72660;51.258;-2.200;2023-10-13T11:25:03;99192.68;;;22.99;43.83
82887;BME280;72660;51.258;-2.200;2023-10-13T11:27:30;99208.20;;;22.40;44.50
82887;BME280;72660;51.258;-2.200;2023-10-13T11:29:52;99213.01;;;22.68;44.30
82887;BME280;72660;51.258;-2.200;2023-10-13T11:32:17;99216.38;;;22.02;45.97
82887;BME280;72660;51.258;-2.200;2023-10-13T11:34:42;99212.90;;;21.85;45.80
82887;BME280;72660;51.258;-2.200;2023-10-13T11:37:08;99207.62;;;22.80;45.00
82887;BME280;72660;51.258;-2.200;2023-10-13T11:39:33;99194.44;;;22.39;44.43
82887;BME280;72660;51.258;-2.200;2023-10-13T11:41:58;99207.24;;;22.91;43.73
82887;BME280;72660;51.258;-2.200;2023-10-13T11:44:23;99218.50;;;23.14;43.02
82887;BME280;72660;51.258;-2.200;2023-10-13T11:46:48;99213.28;;;22.12;44.44
82887;BME280;72660;51.258;-2.200;2023-10-13T11:49:14;99210.23;;;22.58;44.26
82887;BME280;72660;51.258;-2.200;2023-10-13T11:51:38;99205.71;;;22.59;44.59
82887;BME280;72660;51.258;-2.200;2023-10-13T11:54:04;99206.04;;;22.38;43.75
82887;BME280;72660;51.258;-2.200;2023-10-13T11:56:29;99199.45;;;21.86;44.37
82887;BME280;72660;51.258;-2.200;2023-10-13T11:58:54;99194.53;;;21.45;46.31
82887;BME280;72660;51.258;-2.200;2023-10-13T12:01:20;99203.44;;;22.07;46.46
82887;BME280;72660;51.258;-2.200;2023-10-13T12:03:47;99197.37;;;21.60;47.50
82887;BME280;72660;51.258;-2.200;2023-10-13T12:06:11;99189.80;;;22.05;46.97
82887;BME280;72660;51.258;-2.200;2023-10-13T12:08:35;99187.11;;;22.35;46.85
82887;BME280;72660;51.258;-2.200;2023-10-13T12:11:05;99180.76;;;23.13;45.05
82887;BME280;72660;51.258;-2.200;2023-10-13T12:13:26;99173.87;;;23.01;45.73
82887;BME280;72660;51.258;-2.200;2023-10-13T12:15:51;99169.39;;;22.08;46.57
82887;BME280;72660;51.258;-2.200;2023-10-13T12:18:17;99173.52;;;22.73;45.50
82887;BME280;72660;51.258;-2.200;2023-10-13T12:20:42;99157.72;;;23.27;45.30
82887;BME280;72660;51.258;-2.200;2023-10-13T12:23:07;99149.64;;;23.61;44.96
82887;BME280;72660;51.258;-2.200;2023-10-13T12:25:36;99151.02;;;22.76;44.95
82887;BME280;72660;51.258;-2.200;2023-10-13T12:27:58;99142.51;;;21.89;45.49
82887;BME280;72660;51.258;-2.200;2023-10-13T12:30:23;99139.00;;;21.95;46.02
82887;BME280;72660;51.258;-2.200;2023-10-13T12:32:49;99140.07;;;21.51;47.86
82887;BME280;72660;51.258;-2.200;2023-10-13T12:35:14;99137.92;;;21.57;47.22
82887;BME280;72660;51.258;-2.200;2023-10-13T12:37:38;99142.07;;;21.05;48.36
82887;BME280;72660;51.258;-2.200;2023-10-13T12:40:06;99142.16;;;21.12;49.30
82887;BME280;72660;51.258;-2.200;2023-10-13T12:42:29;99133.80;;;21.02;48.81